createdAt,value
2022-10-30T00:00:34.980Z,16.93
2022-10-30T00:01:35.045Z,16.90
2022-10-30T00:02:35.093Z,16.89
2022-10-30T00:03:34.945Z,16.88
2022-10-30T00:04:34.933Z,16.88
2022-10-30T00:05:34.940Z,16.86
2022-10-30T00:06:34.915Z,16.89
2022-10-30T00:07:34.912Z,16.89
2022-10-30T00:08:34.897Z,16.92
2022-10-30T00:09:34.877Z,16.95
2022-10-30T00:10:34.871Z,16.90
2022-10-30T00:11:34.870Z,16.85
2022-10-30T00:12:34.857Z,16.81
2022-10-30T00:13:34.838Z,16.80
2022-10-30T00:14:34.824Z,16.85
2022-10-30T00:15:34.813Z,16.85
2022-10-30T00:16:34.803Z,16.83
2022-10-30T00:17:34.801Z,16.80
2022-10-30T00:18:34.780Z,16.80
2022-10-30T00:19:34.779Z,16.77
2022-10-30T00:20:34.759Z,16.86
2022-10-30T00:21:34.764Z,16.77
2022-10-30T00:22:34.756Z,16.83
2022-10-30T00:23:34.727Z,16.78
2022-10-30T00:24:34.723Z,16.73
2022-10-30T00:25:34.707Z,16.70
2022-10-30T00:26:34.695Z,16.65
2022-10-30T00:27:34.708Z,16.65
2022-10-30T00:28:34.681Z,16.65
2022-10-30T00:29:34.658Z,16.55
2022-10-30T00:30:34.651Z,16.56
2022-10-30T00:31:34.637Z,16.63
2022-10-30T00:32:34.638Z,16.62
2022-10-30T00:33:34.615Z,16.52
2022-10-30T00:34:34.621Z,16.53
2022-10-30T00:35:34.629Z,16.58
2022-10-30T00:36:34.586Z,16.50
2022-10-30T00:37:34.600Z,16.48
2022-10-30T00:38:34.562Z,16.52
2022-10-30T00:39:34.551Z,16.55
2022-10-30T00:40:34.548Z,16.48
2022-10-30T00:41:34.534Z,16.38
2022-10-30T00:42:34.530Z,16.30
2022-10-30T00:43:34.507Z,16.40
2022-10-30T00:44:34.497Z,16.37
2022-10-30T00:45:34.484Z,16.35
2022-10-30T00:46:34.475Z,16.35
2022-10-30T00:47:34.517Z,16.30
2022-10-30T00:48:34.453Z,16.30
2022-10-30T00:49:34.444Z,16.37
2022-10-30T00:50:34.444Z,16.37
2022-10-30T00:51:34.453Z,16.26
2022-10-30T00:52:34.426Z,16.20
2022-10-30T00:53:34.425Z,16.22
2022-10-30T00:54:34.387Z,16.22
2022-10-30T00:55:34.378Z,16.20
2022-10-30T00:56:34.365Z,16.15
2022-10-30T00:57:34.370Z,16.16
2022-10-30T00:58:34.345Z,16.11
2022-10-30T00:59:34.339Z,16.07
2022-10-30T01:00:34.327Z,16.12
2022-10-30T01:01:34.443Z,16.04
2022-10-30T01:02:34.373Z,16.06
2022-10-30T01:03:34.290Z,16.07
2022-10-30T01:04:34.285Z,16.06
2022-10-30T01:05:34.269Z,16.03
2022-10-30T01:06:34.258Z,16.04
2022-10-30T01:07:34.258Z,16.00
2022-10-30T01:08:34.414Z,15.88
2022-10-30T01:09:34.243Z,15.84
2022-10-30T01:10:34.215Z,15.84
2022-10-30T01:11:34.205Z,15.86
2022-10-30T01:12:34.205Z,15.82
2022-10-30T01:13:34.209Z,15.79
2022-10-30T01:14:34.177Z,15.78
2022-10-30T01:15:34.160Z,15.81
2022-10-30T01:16:34.153Z,15.74
2022-10-30T01:17:34.149Z,15.76
2022-10-30T01:18:34.129Z,15.76
2022-10-30T01:19:34.117Z,15.66
2022-10-30T01:20:34.111Z,15.56
2022-10-30T01:21:34.120Z,15.57
2022-10-30T01:22:34.126Z,15.52
2022-10-30T01:23:34.078Z,15.56
2022-10-30T01:24:34.062Z,15.63
2022-10-30T01:25:34.070Z,15.59
2022-10-30T01:26:34.042Z,15.57
2022-10-30T01:27:34.048Z,15.63
2022-10-30T01:28:34.021Z,15.63
2022-10-30T01:29:34.015Z,15.59
2022-10-30T01:30:33.997Z,15.57
2022-10-30T01:31:33.990Z,15.56
2022-10-30T01:32:34.323Z,15.57
2022-10-30T01:33:34.001Z,15.67
2022-10-30T01:34:33.994Z,15.64
2022-10-30T01:35:33.989Z,15.66
2022-10-30T01:36:33.933Z,15.61
2022-10-30T01:37:33.968Z,15.59
2022-10-30T01:38:33.947Z,15.68
2022-10-30T01:39:33.904Z,15.76
2022-10-30T01:40:33.889Z,15.67
2022-10-30T01:41:33.900Z,15.74
2022-10-30T01:42:33.939Z,15.76
2022-10-30T01:43:33.862Z,15.75
2022-10-30T01:44:33.846Z,15.76
2022-10-30T01:45:33.839Z,15.74
2022-10-30T01:46:33.825Z,15.78
2022-10-30T01:47:33.828Z,15.75
2022-10-30T01:48:33.803Z,15.79
2022-10-30T01:49:33.803Z,15.78
2022-10-30T01:50:33.783Z,15.79
2022-10-30T01:51:33.773Z,15.74
2022-10-30T01:52:33.782Z,15.79
2022-10-30T01:53:33.751Z,15.76
2022-10-30T01:54:33.771Z,15.78
2022-10-30T01:55:33.732Z,15.60
2022-10-30T01:56:33.715Z,15.59
2022-10-30T01:57:33.738Z,15.57
2022-10-30T01:58:33.755Z,15.59
2022-10-30T01:59:33.688Z,15.59
2022-10-30T02:00:33.675Z,15.64
2022-10-30T02:01:33.763Z,15.68
2022-10-30T02:02:33.840Z,15.56
2022-10-30T02:03:33.647Z,15.67
2022-10-30T02:04:33.630Z,15.60
2022-10-30T02:05:33.619Z,15.60
2022-10-30T02:06:33.610Z,15.61
2022-10-30T02:07:33.652Z,15.66
2022-10-30T02:08:33.599Z,15.61
2022-10-30T02:09:33.579Z,15.61
2022-10-30T02:10:33.565Z,15.56
2022-10-30T02:11:33.567Z,15.60
2022-10-30T02:12:33.554Z,15.54
2022-10-30T02:13:33.563Z,15.45
2022-10-30T02:14:33.529Z,15.39
2022-10-30T02:15:33.516Z,15.43
2022-10-30T02:16:33.502Z,15.41
2022-10-30T02:17:33.507Z,15.38
2022-10-30T02:18:33.523Z,15.45
2022-10-30T02:19:33.470Z,15.45
2022-10-30T02:20:33.457Z,15.45
2022-10-30T02:21:33.449Z,15.49
2022-10-30T02:22:33.636Z,15.43
2022-10-30T02:23:33.433Z,15.54
2022-10-30T02:24:33.414Z,15.54
2022-10-30T02:25:33.405Z,15.54
2022-10-30T02:26:33.391Z,15.51
2022-10-30T02:27:33.400Z,15.54
2022-10-30T02:28:33.371Z,15.59
2022-10-30T02:29:33.379Z,15.60
2022-10-30T02:30:33.348Z,15.60
2022-10-30T02:31:33.341Z,15.60
2022-10-30T02:32:33.337Z,15.59
2022-10-30T02:33:33.317Z,15.70
2022-10-30T02:34:33.305Z,15.61
2022-10-30T02:35:34.418Z,15.67
2022-10-30T02:36:33.286Z,15.68
2022-10-30T02:37:33.310Z,15.68
2022-10-30T02:38:33.271Z,15.59
2022-10-30T02:39:33.253Z,15.70
2022-10-30T02:40:33.253Z,15.63
2022-10-30T02:41:33.231Z,15.61
2022-10-30T02:42:33.229Z,15.61
2022-10-30T02:43:33.232Z,15.60
2022-10-30T02:44:33.196Z,15.64
2022-10-30T02:45:33.205Z,15.57
2022-10-30T02:46:33.178Z,15.48
2022-10-30T02:47:33.186Z,15.52
2022-10-30T02:48:33.201Z,15.48
2022-10-30T02:49:33.154Z,15.45
2022-10-30T02:50:33.133Z,15.46
2022-10-30T02:51:33.131Z,15.43
2022-10-30T02:52:33.120Z,15.49
2022-10-30T02:53:33.101Z,15.45
2022-10-30T02:54:33.090Z,15.42
2022-10-30T02:55:33.079Z,15.49
2022-10-30T02:56:33.066Z,15.46
2022-10-30T02:57:33.068Z,15.51
2022-10-30T02:58:33.045Z,15.43
2022-10-30T02:59:33.037Z,15.42
2022-10-30T03:00:33.025Z,15.42
2022-10-30T03:01:33.211Z,15.48
2022-10-30T03:02:33.014Z,15.45
2022-10-30T03:03:32.994Z,15.31
2022-10-30T03:04:32.981Z,15.33
2022-10-30T03:05:32.972Z,15.33
2022-10-30T03:06:32.957Z,15.41
2022-10-30T03:07:32.958Z,15.41
2022-10-30T03:08:32.937Z,15.35
2022-10-30T03:09:32.929Z,15.42
2022-10-30T03:10:32.915Z,15.46
2022-10-30T03:11:32.907Z,15.43
2022-10-30T03:12:32.904Z,15.42
2022-10-30T03:13:32.884Z,15.43
2022-10-30T03:14:32.872Z,15.54
2022-10-30T03:15:32.864Z,15.49
2022-10-30T03:16:32.854Z,15.49
2022-10-30T03:17:32.922Z,15.48
2022-10-30T03:18:32.833Z,15.54
2022-10-30T03:19:32.822Z,15.57
2022-10-30T03:20:32.807Z,15.49
2022-10-30T03:21:32.799Z,15.52
2022-10-30T03:22:32.795Z,15.61
2022-10-30T03:23:32.782Z,15.57
2022-10-30T03:24:32.765Z,15.61
2022-10-30T03:25:32.757Z,15.56
2022-10-30T03:26:32.748Z,15.60
2022-10-30T03:27:32.749Z,15.60
2022-10-30T03:28:32.720Z,15.54
2022-10-30T03:29:32.712Z,15.59
2022-10-30T03:30:32.698Z,15.59
2022-10-30T03:31:32.691Z,15.60
2022-10-30T03:32:32.694Z,15.64
2022-10-30T03:33:32.684Z,15.57
2022-10-30T03:34:32.656Z,15.60
2022-10-30T03:35:32.651Z,15.59
2022-10-30T03:36:32.633Z,15.61
2022-10-30T03:37:32.642Z,15.63
2022-10-30T03:38:32.628Z,15.61
2022-10-30T03:39:32.602Z,15.59
2022-10-30T03:40:32.593Z,15.63
2022-10-30T03:41:32.626Z,15.48
2022-10-30T03:42:32.582Z,15.56
2022-10-30T03:43:32.561Z,15.54
2022-10-30T03:44:32.548Z,15.54
2022-10-30T03:45:32.541Z,15.51
2022-10-30T03:46:32.527Z,15.60
2022-10-30T03:47:32.525Z,15.52
2022-10-30T03:48:32.507Z,15.56
2022-10-30T03:49:32.514Z,15.60
2022-10-30T03:50:32.485Z,15.57
2022-10-30T03:51:32.582Z,15.49
2022-10-30T03:52:32.472Z,15.45
2022-10-30T03:53:32.454Z,15.46
2022-10-30T03:54:32.445Z,15.45
2022-10-30T03:55:32.429Z,15.41
2022-10-30T03:56:32.452Z,15.43
2022-10-30T03:57:32.419Z,15.35
2022-10-30T03:58:32.396Z,15.42
2022-10-30T03:59:32.395Z,15.41
2022-10-30T04:00:32.374Z,15.28
2022-10-30T04:01:32.492Z,15.31
2022-10-30T04:02:32.363Z,15.28
2022-10-30T04:03:32.344Z,15.26
2022-10-30T04:04:32.336Z,15.26
2022-10-30T04:05:32.337Z,15.31
2022-10-30T04:06:32.310Z,15.27
2022-10-30T04:07:32.311Z,15.26
2022-10-30T04:08:32.286Z,15.33
2022-10-30T04:09:32.281Z,15.26
2022-10-30T04:10:32.265Z,15.30
2022-10-30T04:11:32.333Z,15.35
2022-10-30T04:12:32.260Z,15.36
2022-10-30T04:13:32.236Z,15.31
2022-10-30T04:14:32.251Z,15.33
2022-10-30T04:15:32.213Z,15.45
2022-10-30T04:16:32.205Z,15.46
2022-10-30T04:17:32.221Z,15.42
2022-10-30T04:18:32.179Z,15.42
2022-10-30T04:19:32.170Z,15.45
2022-10-30T04:20:32.163Z,15.51
2022-10-30T04:21:32.167Z,15.46
2022-10-30T04:22:32.135Z,15.42
2022-10-30T04:23:32.139Z,15.56
2022-10-30T04:24:32.116Z,15.49
2022-10-30T04:25:32.108Z,15.48
2022-10-30T04:26:32.096Z,15.60
2022-10-30T04:27:32.083Z,15.56
2022-10-30T04:28:32.081Z,15.59
2022-10-30T04:29:32.061Z,15.60
2022-10-30T04:30:32.048Z,15.60
2022-10-30T04:31:32.086Z,15.59
2022-10-30T04:32:32.028Z,15.61
2022-10-30T04:33:32.026Z,15.61
2022-10-30T04:34:32.006Z,15.60
2022-10-30T04:35:31.996Z,15.59
2022-10-30T04:36:31.984Z,15.70
2022-10-30T04:37:31.993Z,15.67
2022-10-30T04:38:31.978Z,15.64
2022-10-30T04:39:31.952Z,15.78
2022-10-30T04:40:31.940Z,15.72
2022-10-30T04:41:31.930Z,15.70
2022-10-30T04:42:31.920Z,15.72
2022-10-30T04:43:31.920Z,15.76
2022-10-30T04:44:31.897Z,15.78
2022-10-30T04:45:31.889Z,15.72
2022-10-30T04:46:31.877Z,15.75
2022-10-30T04:48:31.869Z,15.72
2022-10-30T04:49:31.843Z,15.84
2022-10-30T04:50:31.839Z,15.76
2022-10-30T04:51:31.824Z,15.78
2022-10-30T04:52:31.811Z,15.72
2022-10-30T04:53:31.832Z,15.74
2022-10-30T04:54:31.790Z,15.75
2022-10-30T04:55:31.810Z,15.74
2022-10-30T04:56:31.767Z,15.76
2022-10-30T04:57:31.766Z,15.67
2022-10-30T04:58:31.755Z,15.75
2022-10-30T04:59:31.737Z,15.67
2022-10-30T05:00:31.725Z,15.60
2022-10-30T05:01:31.876Z,15.61
2022-10-30T05:02:31.943Z,15.57
2022-10-30T05:03:31.702Z,15.63
2022-10-30T05:04:31.681Z,15.63
2022-10-30T05:05:31.674Z,15.57
2022-10-30T05:06:31.659Z,15.51
2022-10-30T05:07:31.650Z,15.30
2022-10-30T05:08:31.681Z,15.30
2022-10-30T05:09:31.646Z,15.24
2022-10-30T05:10:31.615Z,15.26
2022-10-30T05:11:31.609Z,15.26
2022-10-30T05:12:31.594Z,15.23
2022-10-30T05:13:31.594Z,15.19
2022-10-30T05:14:31.572Z,15.13
2022-10-30T05:15:31.563Z,15.12
2022-10-30T05:16:31.552Z,15.09
2022-10-30T05:18:31.565Z,15.15
2022-10-30T05:19:31.522Z,15.15
2022-10-30T05:20:31.508Z,15.17
2022-10-30T05:21:31.497Z,15.13
2022-10-30T05:22:31.486Z,15.21
2022-10-30T05:23:31.485Z,15.33
2022-10-30T05:24:31.464Z,15.26
2022-10-30T05:25:31.471Z,15.30
2022-10-30T05:26:31.443Z,15.42
2022-10-30T05:27:31.432Z,15.46
2022-10-30T05:28:31.432Z,15.45
2022-10-30T05:29:31.417Z,15.46
2022-10-30T05:30:31.403Z,15.48
2022-10-30T05:31:31.417Z,15.48
2022-10-30T05:32:31.376Z,15.31
2022-10-30T05:33:31.385Z,15.28
2022-10-30T05:34:31.355Z,15.28
2022-10-30T05:35:31.350Z,15.31
2022-10-30T05:36:31.333Z,15.30
2022-10-30T05:37:31.325Z,15.42
2022-10-30T05:38:31.321Z,15.36
2022-10-30T05:39:31.300Z,15.24
2022-10-30T05:40:31.293Z,15.23
2022-10-30T05:41:31.297Z,15.12
2022-10-30T05:42:31.270Z,15.11
2022-10-30T05:43:31.267Z,15.05
2022-10-30T05:44:58.737Z,15.13
2022-10-30T05:45:32.236Z,15.12
2022-10-30T05:46:31.226Z,15.12
2022-10-30T05:47:31.221Z,15.21
2022-10-30T05:48:31.215Z,15.17
2022-10-30T05:49:31.205Z,15.23
2022-10-30T05:50:31.184Z,15.15
2022-10-30T05:51:33.152Z,15.27
2022-10-30T05:52:31.162Z,15.24
2022-10-30T05:53:31.158Z,15.24
2022-10-30T05:54:31.140Z,15.27
2022-10-30T05:55:31.127Z,15.33
2022-10-30T05:56:31.119Z,15.27
2022-10-30T05:57:31.123Z,15.39
2022-10-30T05:58:31.115Z,15.41
2022-10-30T05:59:31.085Z,15.45
2022-10-30T06:00:31.075Z,15.31
2022-10-30T06:01:31.194Z,15.23
2022-10-30T06:02:31.126Z,15.24
2022-10-30T06:03:31.048Z,15.31
2022-10-30T06:04:31.032Z,15.33
2022-10-30T06:05:31.034Z,15.39
2022-10-30T06:06:31.012Z,15.41
2022-10-30T06:07:31.009Z,15.39
2022-10-30T06:08:30.987Z,15.46
2022-10-30T06:09:30.978Z,15.45
2022-10-30T06:10:30.967Z,15.59
2022-10-30T06:11:30.956Z,15.56
2022-10-30T06:12:30.945Z,15.51
2022-10-30T06:13:30.964Z,15.59
2022-10-30T06:14:30.951Z,15.56
2022-10-30T06:15:30.910Z,15.63
2022-10-30T06:17:30.888Z,15.64
2022-10-30T06:18:30.889Z,15.66
2022-10-30T06:19:30.868Z,15.59
2022-10-30T06:20:30.863Z,15.59
2022-10-30T06:21:30.846Z,15.63
2022-10-30T06:22:30.841Z,15.66
2022-10-30T06:23:30.858Z,15.66
2022-10-30T06:24:30.818Z,15.72
2022-10-30T06:25:31.127Z,15.70
2022-10-30T06:26:30.802Z,15.74
2022-10-30T06:27:30.790Z,15.76
2022-10-30T06:28:30.773Z,15.78
2022-10-30T06:29:30.776Z,15.78
2022-10-30T06:30:30.749Z,15.72
2022-10-30T06:31:30.738Z,15.70
2022-10-30T06:32:30.740Z,15.67
2022-10-30T06:33:30.720Z,15.75
2022-10-30T06:34:30.710Z,15.75
2022-10-30T06:35:30.692Z,15.72
2022-10-30T06:36:30.685Z,15.68
2022-10-30T06:37:30.686Z,15.84
2022-10-30T06:38:30.665Z,15.86
2022-10-30T06:39:30.650Z,15.86
2022-10-30T06:40:30.644Z,15.94
2022-10-30T06:41:30.821Z,15.86
2022-10-30T06:42:30.633Z,15.84
2022-10-30T06:43:30.608Z,15.96
2022-10-30T06:44:30.600Z,15.89
2022-10-30T06:45:30.604Z,15.94
2022-10-30T06:46:33.544Z,16.01
2022-10-30T06:47:30.610Z,15.94
2022-10-30T06:48:30.609Z,16.00
2022-10-30T06:49:30.545Z,16.00
2022-10-30T06:50:30.533Z,16.11
2022-10-30T06:51:30.522Z,16.03
2022-10-30T06:52:30.532Z,16.11
2022-10-30T06:53:30.508Z,16.09
2022-10-30T06:54:30.528Z,16.12
2022-10-30T06:55:30.478Z,16.14
2022-10-30T06:56:30.492Z,16.15
2022-10-30T06:57:30.480Z,16.22
2022-10-30T06:58:30.450Z,16.25
2022-10-30T06:59:30.433Z,16.33
2022-10-30T07:00:30.506Z,16.30
2022-10-30T07:01:30.451Z,16.38
2022-10-30T07:02:30.434Z,16.42
2022-10-30T07:03:30.392Z,16.48
2022-10-30T07:04:30.383Z,16.49
2022-10-30T07:05:30.370Z,16.50
2022-10-30T07:06:30.362Z,16.59
2022-10-30T07:07:30.362Z,16.59
2022-10-30T07:08:30.349Z,16.59
2022-10-30T07:09:30.328Z,16.71
2022-10-30T07:10:30.319Z,16.74
2022-10-30T07:11:30.310Z,16.77
2022-10-30T07:12:30.308Z,16.73
2022-10-30T07:13:30.286Z,16.75
2022-10-30T07:14:30.272Z,16.81
2022-10-30T07:15:30.279Z,16.89
2022-10-30T07:16:30.255Z,16.92
2022-10-30T07:17:30.255Z,17.08
2022-10-30T07:18:30.245Z,16.98
2022-10-30T07:19:30.231Z,17.15
2022-10-30T07:20:30.317Z,17.11
2022-10-30T07:21:30.202Z,17.10
2022-10-30T07:22:30.187Z,17.07
2022-10-30T07:23:30.199Z,17.06
2022-10-30T07:24:30.175Z,17.08
2022-10-30T07:25:30.256Z,17.18
2022-10-30T07:26:30.162Z,17.17
2022-10-30T07:27:30.132Z,17.35
2022-10-30T07:28:30.137Z,17.62
2022-10-30T07:29:30.113Z,17.79
2022-10-30T07:30:30.137Z,17.84
2022-10-30T07:31:41.819Z,18.15
2022-10-30T07:32:31.197Z,18.42
2022-10-30T07:33:30.099Z,18.58
2022-10-30T07:34:30.058Z,18.84
2022-10-30T07:35:30.053Z,18.99
2022-10-30T07:36:30.084Z,19.20
2022-10-30T07:37:30.040Z,19.43
2022-10-30T07:38:30.036Z,19.63
2022-10-30T07:39:30.043Z,19.78
2022-10-30T07:40:29.993Z,19.88
2022-10-30T07:41:30.000Z,20.08
2022-10-30T07:42:29.969Z,20.28
2022-10-30T07:43:29.968Z,20.38
2022-10-30T07:44:29.949Z,20.56
2022-10-30T07:45:29.939Z,20.68
2022-10-30T07:46:29.929Z,20.86
2022-10-30T07:47:29.926Z,20.93
2022-10-30T07:48:29.906Z,21.04
2022-10-30T07:49:29.916Z,21.09
2022-10-30T07:50:29.882Z,21.16
2022-10-30T07:51:29.872Z,21.26
2022-10-30T07:52:29.880Z,21.21
2022-10-30T07:53:29.851Z,21.04
2022-10-30T07:54:29.841Z,20.93
2022-10-30T07:55:29.835Z,21.08
2022-10-30T07:56:29.817Z,21.27
2022-10-30T07:57:29.818Z,21.39
2022-10-30T07:58:29.805Z,21.64
2022-10-30T07:59:29.811Z,21.78
2022-10-30T08:00:29.790Z,21.88
2022-10-30T08:01:29.918Z,21.95
2022-10-30T08:02:29.861Z,21.97
2022-10-30T08:03:29.754Z,21.99
2022-10-30T08:04:29.743Z,21.94
2022-10-30T08:05:30.388Z,21.74
2022-10-30T08:06:29.725Z,21.71
2022-10-30T08:07:29.715Z,21.54
2022-10-30T08:08:29.697Z,21.32
2022-10-30T08:09:29.680Z,21.17
2022-10-30T08:10:29.667Z,21.05
2022-10-30T08:11:29.671Z,20.96
2022-10-30T08:12:29.663Z,20.69
2022-10-30T08:13:29.659Z,20.65
2022-10-30T08:14:29.629Z,20.65
2022-10-30T08:15:29.614Z,20.49
2022-10-30T08:16:29.606Z,20.39
2022-10-30T08:17:29.604Z,20.23
2022-10-30T08:18:29.579Z,20.21
2022-10-30T08:19:29.566Z,20.20
2022-10-30T08:20:29.557Z,20.25
2022-10-30T08:21:29.565Z,20.39
2022-10-30T08:22:29.537Z,20.61
2022-10-30T08:23:29.534Z,20.64
2022-10-30T08:24:29.514Z,20.77
2022-10-30T08:25:29.499Z,20.84
2022-10-30T08:26:29.492Z,20.96
2022-10-30T08:27:29.493Z,21.17
2022-10-30T08:28:32.650Z,21.20
2022-10-30T08:29:29.455Z,21.26
2022-10-30T08:30:29.467Z,21.24
2022-10-30T08:31:29.435Z,21.24
2022-10-30T08:32:29.450Z,21.23
2022-10-30T08:33:29.411Z,21.17
2022-10-30T08:34:29.408Z,21.20
2022-10-30T08:35:29.470Z,21.21
2022-10-30T08:36:29.387Z,21.23
2022-10-30T08:37:29.431Z,21.42
2022-10-30T08:38:29.374Z,21.64
2022-10-30T08:39:29.352Z,21.64
2022-10-30T08:40:29.339Z,21.60
2022-10-30T08:41:29.333Z,21.66
2022-10-30T08:42:29.336Z,21.78
2022-10-30T08:43:29.311Z,21.92
2022-10-30T08:44:29.319Z,22.07
2022-10-30T08:45:31.117Z,21.99
2022-10-30T08:46:29.273Z,21.97
2022-10-30T08:47:29.282Z,22.09
2022-10-30T08:48:29.255Z,22.29
2022-10-30T08:49:29.243Z,22.35
2022-10-30T08:50:29.235Z,22.49
2022-10-30T08:51:29.217Z,22.67
2022-10-30T08:52:29.222Z,22.80
2022-10-30T08:53:29.217Z,22.96
2022-10-30T08:54:29.199Z,23.22
2022-10-30T08:55:29.176Z,23.46
2022-10-30T08:56:29.168Z,23.70
2022-10-30T08:57:29.166Z,23.86
2022-10-30T08:58:29.146Z,23.92
2022-10-30T08:59:29.136Z,24.20
2022-10-30T09:00:29.137Z,24.44
2022-10-30T09:01:29.255Z,24.54
2022-10-30T09:02:29.249Z,24.68
2022-10-30T09:03:29.088Z,24.77
2022-10-30T09:04:29.082Z,25.20
2022-10-30T09:05:29.075Z,25.42
2022-10-30T09:06:29.063Z,25.46
2022-10-30T09:07:29.077Z,25.56
2022-10-30T09:08:29.041Z,25.77
2022-10-30T09:09:29.051Z,25.94
2022-10-30T09:10:29.033Z,26.06
2022-10-30T09:11:29.011Z,25.98
2022-10-30T09:12:29.010Z,25.82
2022-10-30T09:13:28.991Z,26.04
2022-10-30T09:14:28.993Z,26.08
2022-10-30T09:15:28.969Z,26.12
2022-10-30T09:16:29.002Z,26.32
2022-10-30T09:17:28.977Z,26.44
2022-10-30T09:18:28.939Z,26.58
2022-10-30T09:19:28.930Z,26.76
2022-10-30T09:20:28.919Z,26.84
2022-10-30T09:21:28.903Z,26.96
2022-10-30T09:22:28.923Z,26.99
2022-10-30T09:23:28.897Z,27.05
2022-10-30T09:24:28.878Z,27.16
2022-10-30T09:25:28.884Z,27.16
2022-10-30T09:26:28.888Z,27.36
2022-10-30T09:27:28.872Z,27.54
2022-10-30T09:28:28.837Z,27.64
2022-10-30T09:29:28.826Z,27.73
2022-10-30T09:30:28.822Z,27.84
2022-10-30T09:31:28.805Z,27.82
2022-10-30T09:32:28.886Z,27.91
2022-10-30T09:33:28.788Z,27.89
2022-10-30T09:35:28.771Z,28.09
2022-10-30T09:36:28.760Z,28.29
2022-10-30T09:37:28.755Z,28.58
2022-10-30T09:38:28.736Z,28.59
2022-10-30T09:39:28.727Z,28.54
2022-10-30T09:40:28.760Z,28.78
2022-10-30T09:41:28.789Z,29.03
2022-10-30T09:42:28.720Z,29.31
2022-10-30T09:43:28.696Z,29.41
2022-10-30T09:44:28.685Z,29.59
2022-10-30T09:45:29.965Z,29.72
2022-10-30T09:46:28.710Z,29.71
2022-10-30T09:47:28.653Z,29.74
2022-10-30T09:48:28.643Z,29.70
2022-10-30T09:49:28.634Z,29.68
2022-10-30T09:50:28.632Z,29.68
2022-10-30T09:51:28.634Z,29.86
2022-10-30T09:52:28.621Z,29.86
2022-10-30T09:53:28.600Z,29.99
2022-10-30T09:54:28.604Z,29.96
2022-10-30T09:55:28.573Z,29.81
2022-10-30T09:56:28.618Z,29.78
2022-10-30T09:57:28.595Z,29.94
2022-10-30T09:58:28.553Z,30.08
2022-10-30T09:59:28.549Z,30.33
2022-10-30T10:00:28.526Z,30.34
2022-10-30T10:01:28.745Z,30.34
2022-10-30T10:02:28.674Z,30.37
2022-10-30T10:03:28.501Z,30.43
2022-10-30T10:04:28.488Z,30.16
2022-10-30T10:05:28.493Z,30.24
2022-10-30T10:06:28.492Z,30.09
2022-10-30T10:07:28.463Z,30.02
2022-10-30T10:08:28.465Z,30.09
2022-10-30T10:09:28.536Z,30.14
2022-10-30T10:10:28.444Z,30.27
2022-10-30T10:11:28.439Z,30.03
2022-10-30T10:12:28.444Z,29.94
2022-10-30T10:13:28.429Z,29.79
2022-10-30T10:14:28.428Z,29.53
2022-10-30T10:15:28.393Z,28.97
2022-10-30T10:16:28.395Z,28.16
2022-10-30T10:17:28.375Z,27.69
2022-10-30T10:18:28.411Z,26.92
2022-10-30T10:19:28.359Z,26.67
2022-10-30T10:20:28.348Z,26.36
2022-10-30T10:21:28.365Z,26.01
2022-10-30T10:22:28.327Z,25.67
2022-10-30T10:23:28.318Z,25.44
2022-10-30T10:24:28.309Z,25.31
2022-10-30T10:25:28.303Z,25.13
2022-10-30T10:26:28.297Z,24.90
2022-10-30T10:27:28.277Z,24.87
2022-10-30T10:28:29.794Z,24.69
2022-10-30T10:29:28.283Z,24.61
2022-10-30T10:30:28.243Z,24.49
2022-10-30T10:31:28.244Z,24.38
2022-10-30T10:32:28.230Z,24.22
2022-10-30T10:33:28.217Z,24.05
2022-10-30T10:34:28.208Z,24.10
2022-10-30T10:35:28.205Z,23.80
2022-10-30T10:36:28.206Z,23.77
2022-10-30T10:37:28.187Z,23.70
2022-10-30T10:38:28.166Z,23.67
2022-10-30T10:39:28.157Z,23.61
2022-10-30T10:40:28.145Z,23.47
2022-10-30T10:41:28.150Z,23.39
2022-10-30T10:42:28.135Z,23.32
2022-10-30T10:43:28.115Z,23.27
2022-10-30T10:44:28.098Z,23.17
2022-10-30T10:45:28.115Z,23.14
2022-10-30T10:46:28.109Z,23.08
2022-10-30T10:47:28.069Z,23.11
2022-10-30T10:48:28.060Z,23.05
2022-10-30T10:49:28.144Z,22.93
2022-10-30T10:50:28.058Z,22.87
2022-10-30T10:51:28.051Z,22.92
2022-10-30T10:52:28.014Z,22.93
2022-10-30T10:53:28.004Z,22.87
2022-10-30T10:54:28.001Z,22.65
2022-10-30T10:55:27.984Z,22.67
2022-10-30T10:56:27.990Z,22.71
2022-10-30T10:57:27.963Z,22.53
2022-10-30T10:58:27.952Z,22.46
2022-10-30T10:59:27.945Z,22.35
2022-10-30T11:00:27.928Z,22.32
2022-10-30T11:01:28.104Z,22.34
2022-10-30T11:02:28.010Z,22.34
2022-10-30T11:03:27.900Z,22.32
2022-10-30T11:04:27.892Z,22.34
2022-10-30T11:05:27.886Z,22.25
2022-10-30T11:06:27.875Z,22.25
2022-10-30T11:07:27.857Z,22.14
2022-10-30T11:08:27.879Z,22.20
2022-10-30T11:09:27.837Z,22.16
2022-10-30T11:10:27.820Z,22.22
2022-10-30T11:11:27.821Z,22.23
2022-10-30T11:12:30.901Z,22.13
2022-10-30T11:13:28.788Z,22.20
2022-10-30T11:14:27.777Z,22.12
2022-10-30T11:15:27.768Z,22.10
2022-10-30T11:16:27.764Z,22.12
2022-10-30T11:17:27.762Z,22.17
2022-10-30T11:18:27.739Z,22.14
2022-10-30T11:19:27.721Z,22.09
2022-10-30T11:20:27.714Z,22.13
2022-10-30T11:21:27.710Z,22.10
2022-10-30T11:22:27.690Z,22.13
2022-10-30T11:23:27.680Z,22.12
2022-10-30T11:24:27.670Z,22.14
2022-10-30T11:25:31.169Z,22.14
2022-10-30T11:26:27.652Z,22.13
2022-10-30T11:27:27.650Z,22.12
2022-10-30T11:28:27.623Z,22.12
2022-10-30T11:29:27.616Z,22.06
2022-10-30T11:30:27.600Z,22.02
2022-10-30T11:31:27.668Z,21.92
2022-10-30T11:32:27.583Z,21.97
2022-10-30T11:33:27.591Z,22.02
2022-10-30T11:34:27.562Z,21.98
2022-10-30T11:35:27.586Z,22.10
2022-10-30T11:36:27.572Z,21.98
2022-10-30T11:37:27.526Z,21.99
2022-10-30T11:38:27.515Z,21.99
2022-10-30T11:39:27.507Z,22.02
2022-10-30T11:40:27.498Z,22.01
2022-10-30T11:41:27.498Z,22.04
2022-10-30T11:42:27.471Z,22.01
2022-10-30T11:43:27.466Z,22.09
2022-10-30T11:44:27.449Z,22.09
2022-10-30T11:45:27.451Z,21.99
2022-10-30T11:46:27.435Z,22.10
2022-10-30T11:47:27.507Z,22.10
2022-10-30T11:48:27.443Z,21.98
2022-10-30T11:49:27.417Z,22.06
2022-10-30T11:50:27.407Z,22.02
2022-10-30T11:51:27.446Z,21.95
2022-10-30T11:52:27.367Z,21.97
2022-10-30T11:53:27.356Z,21.97
2022-10-30T11:54:27.342Z,21.98
2022-10-30T11:55:27.347Z,22.01
2022-10-30T11:56:27.320Z,22.07
2022-10-30T11:57:27.312Z,21.99
2022-10-30T11:58:27.303Z,22.01
2022-10-30T11:59:27.289Z,22.01
2022-10-30T12:00:27.296Z,22.09
2022-10-30T12:01:27.371Z,21.97
2022-10-30T12:02:27.475Z,22.04
2022-10-30T12:03:27.252Z,22.02
2022-10-30T12:04:27.234Z,22.02
2022-10-30T12:05:27.271Z,21.95
2022-10-30T12:06:27.213Z,21.98
2022-10-30T12:07:27.204Z,22.02
2022-10-30T12:08:27.190Z,22.01
2022-10-30T12:09:27.182Z,21.92
2022-10-30T12:10:27.179Z,21.97
2022-10-30T12:11:27.159Z,22.02
2022-10-30T12:12:27.146Z,21.90
2022-10-30T12:13:27.138Z,21.85
2022-10-30T12:14:27.128Z,21.85
2022-10-30T12:15:27.129Z,21.94
2022-10-30T12:16:27.104Z,21.97
2022-10-30T12:17:27.095Z,21.91
2022-10-30T12:19:27.075Z,22.01
2022-10-30T12:20:27.073Z,21.99
2022-10-30T12:21:27.070Z,21.88
2022-10-30T12:22:27.040Z,21.98
2022-10-30T12:23:27.031Z,21.91
2022-10-30T12:24:27.019Z,21.90
2022-10-30T12:25:27.019Z,21.94
2022-10-30T12:26:26.996Z,21.90
2022-10-30T12:27:27.002Z,21.97
2022-10-30T12:28:26.975Z,22.02
2022-10-30T12:29:41.672Z,21.99
2022-10-30T12:30:27.983Z,21.91
2022-10-30T12:31:26.952Z,21.94
2022-10-30T12:32:26.933Z,21.94
2022-10-30T12:33:26.924Z,21.92
2022-10-30T12:34:26.917Z,21.98
2022-10-30T12:35:26.918Z,21.81
2022-10-30T12:36:26.890Z,21.97
2022-10-30T12:37:26.899Z,21.90
2022-10-30T12:38:26.868Z,21.99
2022-10-30T12:39:26.859Z,21.94
2022-10-30T12:40:26.859Z,21.95
2022-10-30T12:41:26.840Z,22.04
2022-10-30T12:42:26.829Z,21.92
2022-10-30T12:43:26.821Z,21.85
2022-10-30T12:44:26.842Z,21.98
2022-10-30T12:45:26.809Z,21.85
2022-10-30T12:46:26.790Z,21.94
2022-10-30T12:47:26.782Z,21.90
2022-10-30T12:48:26.763Z,22.01
2022-10-30T12:49:26.760Z,21.95
2022-10-30T12:50:26.797Z,22.01
2022-10-30T12:51:26.742Z,22.01
2022-10-30T12:52:26.726Z,22.10
2022-10-30T12:53:26.730Z,21.99
2022-10-30T12:54:26.702Z,21.98
2022-10-30T12:55:26.704Z,21.90
2022-10-30T12:56:26.678Z,21.98
2022-10-30T12:57:26.672Z,21.82